createdAt,value
2018-11-03T00:00:47.257Z,6.50
2018-11-03T00:02:50.960Z,6.60
2018-11-03T00:04:54.144Z,6.50
2018-11-03T00:06:57.578Z,6.60
2018-11-03T00:09:01.332Z,6.60
2018-11-03T00:11:05.509Z,6.50
2018-11-03T00:13:08.935Z,6.50
2018-11-03T00:15:12.328Z,6.50
2018-11-03T00:17:15.716Z,6.50
2018-11-03T00:19:19.117Z,6.50
2018-11-03T00:21:22.557Z,6.50
2018-11-03T00:23:25.980Z,6.50
2018-11-03T00:25:29.388Z,6.40
2018-11-03T00:27:32.911Z,6.40
2018-11-03T00:29:36.327Z,6.40
2018-11-03T00:31:39.492Z,6.40
2018-11-03T00:33:42.908Z,6.40
2018-11-03T00:35:46.370Z,6.30
2018-11-03T00:37:49.844Z,6.30
2018-11-03T00:39:53.317Z,6.20
2018-11-03T00:41:56.700Z,6.10
2018-11-03T00:44:00.080Z,6.00
2018-11-03T00:46:03.879Z,5.90
2018-11-03T00:48:07.415Z,5.80
2018-11-03T00:50:12.257Z,5.80
2018-11-03T00:52:15.656Z,5.70
2018-11-03T00:54:19.709Z,5.60
2018-11-03T00:56:23.497Z,5.70
2018-11-03T00:58:27.732Z,5.70
2018-11-03T01:00:31.225Z,5.60
2018-11-03T01:02:34.627Z,5.50
2018-11-03T01:04:38.501Z,5.50
2018-11-03T01:06:41.894Z,5.50
2018-11-03T01:08:45.259Z,5.40
2018-11-03T01:10:48.680Z,5.20
2018-11-03T01:12:52.078Z,5.10
2018-11-03T01:14:55.504Z,5.10
2018-11-03T01:16:59.216Z,5.10
2018-11-03T01:19:02.412Z,5.00
2018-11-03T01:21:05.857Z,5.00
2018-11-03T01:23:09.263Z,5.00
2018-11-03T01:25:12.678Z,5.00
2018-11-03T01:27:16.132Z,5.10
2018-11-03T01:29:19.552Z,5.10
2018-11-03T01:31:22.944Z,5.20
2018-11-03T01:33:26.930Z,5.10
2018-11-03T01:35:30.449Z,5.00
2018-11-03T01:37:33.860Z,5.10
2018-11-03T01:39:38.008Z,5.10
2018-11-03T01:41:41.189Z,5.00
2018-11-03T01:43:44.683Z,5.10
2018-11-03T01:45:47.856Z,5.10
2018-11-03T01:47:51.252Z,5.10
2018-11-03T01:49:55.012Z,5.10
2018-11-03T01:51:58.456Z,5.00
2018-11-03T01:54:02.289Z,5.00
2018-11-03T01:56:05.873Z,5.00
2018-11-03T01:58:09.587Z,5.10
2018-11-03T02:00:12.967Z,5.00
2018-11-03T02:02:16.384Z,4.90
2018-11-03T02:04:19.804Z,4.90
2018-11-03T02:06:23.204Z,5.00
2018-11-03T02:08:26.581Z,5.00
2018-11-03T02:10:30.345Z,5.00
2018-11-03T02:12:33.688Z,5.00
2018-11-03T02:14:37.084Z,4.90
2018-11-03T02:16:40.653Z,4.90
2018-11-03T02:18:44.037Z,4.80
2018-11-03T02:20:47.413Z,4.80
2018-11-03T02:22:51.280Z,4.80
2018-11-03T02:24:55.033Z,4.70
2018-11-03T02:26:58.436Z,4.60
2018-11-03T02:29:02.121Z,4.50
2018-11-03T02:31:05.799Z,4.60
2018-11-03T02:33:08.985Z,4.70
2018-11-03T02:35:12.483Z,4.60
2018-11-03T02:37:15.856Z,4.50
2018-11-03T02:39:19.242Z,4.50
2018-11-03T02:41:23.094Z,4.40
2018-11-03T02:43:26.345Z,4.30
2018-11-03T02:45:29.757Z,4.40
2018-11-03T02:47:33.276Z,4.50
2018-11-03T02:49:36.689Z,4.50
2018-11-03T02:51:39.928Z,4.50
2018-11-03T02:53:43.437Z,4.50
2018-11-03T02:55:46.844Z,4.50
2018-11-03T02:57:50.208Z,4.50
2018-11-03T02:59:53.489Z,4.30
2018-11-03T03:01:57.164Z,4.20
2018-11-03T03:04:00.912Z,4.20
2018-11-03T03:06:04.945Z,4.20
2018-11-03T03:08:08.662Z,4.20
2018-11-03T03:10:13.102Z,4.30
2018-11-03T03:12:16.809Z,4.10
2018-11-03T03:14:20.526Z,4.20
2018-11-03T03:16:23.938Z,4.20
2018-11-03T03:18:27.206Z,4.20
2018-11-03T03:20:30.702Z,4.30
2018-11-03T03:22:34.113Z,4.30
2018-11-03T03:24:37.529Z,4.10
2018-11-03T03:26:40.904Z,4.20
2018-11-03T03:28:44.087Z,4.30
2018-11-03T03:30:47.474Z,4.40
2018-11-03T03:32:50.858Z,4.30
2018-11-03T03:34:54.353Z,4.30
2018-11-03T03:36:57.749Z,4.20
2018-11-03T03:39:01.186Z,4.10
2018-11-03T03:41:04.992Z,4.20
2018-11-03T03:43:08.373Z,4.10
2018-11-03T03:45:11.878Z,4.10
2018-11-03T03:47:15.108Z,4.00
2018-11-03T03:49:18.511Z,3.90
2018-11-03T03:51:22.312Z,4.10
2018-11-03T03:53:25.736Z,4.10
2018-11-03T03:55:29.152Z,4.00
2018-11-03T03:57:32.584Z,4.10
2018-11-03T03:59:36.204Z,3.90
2018-11-03T04:01:39.576Z,4.00
2018-11-03T04:03:43.374Z,3.90
2018-11-03T04:05:46.768Z,3.80
2018-11-03T04:07:50.132Z,3.80
2018-11-03T04:09:53.566Z,3.80
2018-11-03T04:11:57.272Z,3.70
2018-11-03T04:14:00.713Z,3.80
2018-11-03T04:16:04.472Z,3.70
2018-11-03T04:18:08.199Z,3.50
2018-11-03T04:20:11.619Z,3.40
2018-11-03T04:22:15.320Z,3.50
2018-11-03T04:24:18.736Z,3.50
2018-11-03T04:26:22.248Z,3.50
2018-11-03T04:28:25.619Z,3.30
2018-11-03T04:30:29.003Z,3.20
2018-11-03T04:32:32.417Z,3.10
2018-11-03T04:34:35.814Z,3.00
2018-11-03T04:36:39.186Z,3.00
2018-11-03T04:38:42.577Z,2.90
2018-11-03T04:40:45.956Z,3.00
2018-11-03T04:42:49.256Z,2.90
2018-11-03T04:44:52.674Z,2.80
2018-11-03T04:46:55.864Z,2.90
2018-11-03T04:49:01.437Z,3.00
2018-11-03T04:51:05.805Z,2.90
2018-11-03T04:53:09.158Z,3.00
2018-11-03T04:55:12.594Z,2.80
2018-11-03T04:57:16.061Z,2.90
2018-11-03T04:59:19.440Z,2.90
2018-11-03T05:01:23.000Z,2.80
2018-11-03T05:03:26.990Z,2.90
2018-11-03T05:05:30.385Z,3.00
2018-11-03T05:07:33.768Z,3.00
2018-11-03T05:09:37.263Z,3.10
2018-11-03T05:11:40.618Z,3.10
2018-11-03T05:13:43.977Z,3.20
2018-11-03T05:15:47.380Z,3.20
2018-11-03T05:17:50.655Z,3.20
2018-11-03T05:19:54.036Z,3.10
2018-11-03T05:21:57.439Z,3.10
2018-11-03T05:24:00.849Z,3.10
2018-11-03T05:26:04.422Z,3.20
2018-11-03T05:28:07.847Z,3.00
2018-11-03T05:30:11.960Z,3.00
2018-11-03T05:32:15.108Z,2.90
2018-11-03T05:34:18.482Z,2.90
2018-11-03T05:36:21.949Z,2.80
2018-11-03T05:38:25.343Z,2.90
2018-11-03T05:40:28.721Z,2.90
2018-11-03T05:42:32.484Z,2.80
2018-11-03T05:44:35.902Z,2.60
2018-11-03T05:46:39.542Z,2.70
2018-11-03T05:48:43.999Z,2.70
2018-11-03T05:50:47.391Z,2.70
2018-11-03T05:52:51.402Z,2.80
2018-11-03T05:54:54.856Z,2.80
2018-11-03T05:56:58.102Z,2.90
2018-11-03T05:59:01.611Z,2.90
2018-11-03T06:01:05.587Z,3.00
2018-11-03T06:03:09.000Z,3.10
2018-11-03T06:05:12.380Z,3.10
2018-11-03T06:07:15.930Z,3.10
2018-11-03T06:09:19.394Z,3.00
2018-11-03T06:11:22.788Z,3.00
2018-11-03T06:13:26.168Z,2.90
2018-11-03T06:15:30.469Z,2.80
2018-11-03T06:17:33.989Z,2.80
2018-11-03T06:19:37.212Z,2.70
2018-11-03T06:21:40.420Z,2.60
2018-11-03T06:23:44.041Z,2.50
2018-11-03T06:25:47.377Z,2.60
2018-11-03T06:27:51.074Z,2.80
2018-11-03T06:29:54.413Z,2.90
2018-11-03T06:31:57.852Z,2.90
2018-11-03T06:34:01.083Z,2.90
2018-11-03T06:36:04.512Z,2.90
2018-11-03T06:38:08.150Z,2.80
2018-11-03T06:40:11.620Z,2.90
2018-11-03T06:42:15.037Z,2.80
2018-11-03T06:44:18.497Z,2.80
2018-11-03T06:46:22.172Z,2.90
2018-11-03T06:48:25.840Z,2.90
2018-11-03T06:50:29.256Z,3.00
2018-11-03T06:52:32.659Z,3.00
2018-11-03T06:54:36.391Z,3.00
2018-11-03T06:56:39.816Z,3.10
2018-11-03T06:58:43.597Z,3.10
2018-11-03T07:00:47.016Z,3.20
2018-11-03T07:02:50.228Z,3.20
2018-11-03T07:04:53.912Z,3.30
2018-11-03T07:06:57.300Z,3.30
2018-11-03T07:09:07.338Z,3.30
2018-11-03T07:11:10.833Z,3.30
2018-11-03T07:13:14.232Z,3.30
2018-11-03T07:15:17.577Z,3.40
2018-11-03T07:17:21.008Z,3.40
2018-11-03T07:19:24.186Z,3.50
2018-11-03T07:21:27.964Z,3.50
2018-11-03T07:23:31.344Z,3.60
2018-11-03T07:25:34.787Z,3.70
2018-11-03T07:27:38.184Z,3.60
2018-11-03T07:29:41.653Z,3.60
2018-11-03T07:31:44.981Z,3.70
2018-11-03T07:33:48.410Z,3.80
2018-11-03T07:35:51.868Z,3.80
2018-11-03T07:37:55.360Z,3.80
2018-11-03T07:39:58.552Z,4.00
2018-11-03T07:42:01.969Z,4.10
2018-11-03T07:44:07.241Z,4.10
2018-11-03T07:46:10.648Z,4.20
2018-11-03T07:48:14.109Z,4.30
2018-11-03T07:50:17.399Z,4.40
2018-11-03T07:52:20.873Z,4.40
2018-11-03T07:54:24.262Z,4.50
2018-11-03T07:56:27.670Z,4.60
2018-11-03T07:58:31.304Z,4.60
2018-11-03T08:00:34.764Z,4.70
2018-11-03T08:02:38.072Z,4.70
2018-11-03T08:04:41.476Z,4.70
2018-11-03T08:06:44.889Z,4.80
2018-11-03T08:08:48.402Z,4.90
2018-11-03T08:10:51.765Z,5.00
2018-11-03T08:12:54.964Z,5.10
2018-11-03T08:14:58.394Z,5.10
2018-11-03T08:17:01.844Z,5.10
2018-11-03T08:19:05.465Z,5.20
2018-11-03T08:21:08.831Z,5.20
2018-11-03T08:23:12.246Z,5.30
2018-11-03T08:25:15.618Z,5.20
2018-11-03T08:27:19.044Z,5.30
2018-11-03T08:29:22.264Z,5.40
2018-11-03T08:31:25.822Z,5.50
2018-11-03T08:33:29.132Z,5.50
2018-11-03T08:35:32.544Z,5.60
2018-11-03T08:37:36.130Z,5.70
2018-11-03T08:39:39.568Z,5.60
2018-11-03T08:41:42.943Z,5.70
2018-11-03T08:43:46.504Z,5.70
2018-11-03T08:45:49.716Z,5.80
2018-11-03T08:47:53.140Z,5.70
2018-11-03T08:49:56.604Z,5.80
2018-11-03T08:51:59.972Z,5.80
2018-11-03T08:54:03.656Z,5.90
2018-11-03T08:56:07.018Z,5.90
2018-11-03T08:58:10.203Z,5.90
2018-11-03T09:00:15.007Z,5.90
2018-11-03T09:02:18.398Z,5.90
2018-11-03T09:04:21.790Z,5.90
2018-11-03T09:06:25.450Z,6.00
2018-11-03T09:08:29.165Z,6.10
2018-11-03T09:10:32.556Z,6.10
2018-11-03T09:12:36.180Z,6.20
2018-11-03T09:14:39.639Z,6.30
2018-11-03T09:16:42.989Z,6.30
2018-11-03T09:18:46.392Z,6.30
2018-11-03T09:20:49.875Z,6.40
2018-11-03T09:22:53.212Z,6.50
2018-11-03T09:24:56.894Z,6.50
2018-11-03T09:27:00.605Z,6.60
2018-11-03T09:29:05.165Z,6.50
2018-11-03T09:31:09.316Z,6.50
2018-11-03T09:33:12.844Z,6.70
2018-11-03T09:35:17.105Z,6.70
2018-11-03T09:37:20.526Z,6.70
2018-11-03T09:39:23.928Z,6.80
2018-11-03T09:41:27.339Z,6.80
2018-11-03T09:43:30.864Z,6.80
2018-11-03T09:45:34.188Z,6.80
2018-11-03T09:47:37.573Z,6.90
2018-11-03T09:49:41.427Z,7.00
2018-11-03T09:51:44.860Z,7.00
2018-11-03T09:53:48.237Z,7.00
2018-11-03T09:55:51.668Z,7.00
2018-11-03T09:57:55.052Z,7.00
2018-11-03T09:59:58.448Z,7.10
2018-11-03T10:02:02.677Z,7.20
2018-11-03T10:04:06.500Z,7.30
2018-11-03T10:06:09.964Z,7.30
2018-11-03T10:08:13.439Z,7.30
2018-11-03T10:10:18.179Z,7.30
2018-11-03T10:12:21.932Z,7.30
2018-11-03T10:14:25.360Z,7.40
2018-11-03T10:16:28.947Z,7.60
2018-11-03T10:18:32.356Z,8.00
2018-11-03T10:20:36.810Z,8.10
2018-11-03T10:22:40.068Z,8.00
2018-11-03T10:24:43.602Z,7.80
2018-11-03T10:26:46.984Z,7.60
2018-11-03T10:28:50.212Z,7.60
2018-11-03T10:30:53.632Z,7.80
2018-11-03T10:32:57.103Z,7.70
2018-11-03T10:35:00.517Z,7.80
2018-11-03T10:37:04.629Z,7.90
2018-11-03T10:39:10.133Z,7.90
2018-11-03T10:41:13.348Z,8.00
2018-11-03T10:43:16.763Z,8.10
2018-11-03T10:45:20.039Z,8.10
2018-11-03T10:47:23.764Z,8.10
2018-11-03T10:49:27.304Z,8.10
2018-11-03T10:51:31.084Z,8.10
2018-11-03T10:53:35.395Z,8.20
2018-11-03T10:55:38.831Z,8.10
2018-11-03T10:57:42.873Z,8.00
2018-11-03T10:59:46.350Z,8.00
2018-11-03T11:01:55.254Z,8.10
2018-11-03T11:04:03.957Z,8.20
2018-11-03T11:06:12.829Z,8.30
2018-11-03T11:08:21.852Z,8.40
2018-11-03T11:10:30.664Z,8.40
2018-11-03T11:12:53.896Z,8.40
2018-11-03T11:14:57.416Z,8.30
2018-11-03T11:17:00.980Z,8.90
2018-11-03T11:19:04.412Z,9.90
2018-11-03T11:21:07.838Z,10.80
2018-11-03T11:23:11.093Z,11.30
2018-11-03T11:25:14.595Z,11.70
2018-11-03T11:27:17.988Z,11.80
2018-11-03T11:29:21.387Z,12.20
2018-11-03T11:31:25.088Z,12.40
2018-11-03T11:33:28.468Z,12.60
2018-11-03T11:35:31.686Z,12.80
2018-11-03T11:37:35.194Z,12.90
2018-11-03T11:39:38.524Z,13.00
2018-11-03T11:41:41.936Z,13.40
2018-11-03T11:43:45.342Z,13.70
2018-11-03T11:45:48.773Z,13.90
2018-11-03T11:47:52.173Z,14.20
2018-11-03T11:49:55.666Z,13.90
2018-11-03T11:51:59.597Z,13.90
2018-11-03T11:54:03.408Z,14.10
2018-11-03T11:56:06.977Z,13.90
2018-11-03T11:58:10.425Z,13.70
2018-11-03T12:00:13.882Z,13.90
2018-11-03T12:02:17.324Z,14.50
2018-11-03T12:04:20.773Z,14.60
2018-11-03T12:06:24.170Z,14.10
2018-11-03T12:08:27.569Z,14.20
2018-11-03T12:10:31.376Z,13.80
2018-11-03T12:12:34.968Z,13.70
2018-11-03T12:14:38.405Z,13.60
2018-11-03T12:16:41.608Z,14.00
2018-11-03T12:18:45.213Z,14.00
2018-11-03T12:20:48.761Z,14.10
2018-11-03T12:22:52.216Z,13.80
2018-11-03T12:24:55.636Z,13.90
2018-11-03T12:26:59.132Z,13.70
2018-11-03T12:29:02.536Z,13.10
2018-11-03T12:31:06.228Z,12.80
2018-11-03T12:33:09.657Z,12.50
2018-11-03T12:35:13.044Z,12.20
2018-11-03T12:37:16.812Z,12.00
2018-11-03T12:39:20.268Z,12.40
2018-11-03T12:41:23.776Z,13.20
2018-11-03T12:43:27.248Z,13.50
2018-11-03T12:45:30.728Z,14.00
2018-11-03T12:47:33.943Z,14.30
2018-11-03T12:49:37.580Z,14.30
2018-11-03T12:51:41.052Z,14.60
2018-11-03T12:53:44.432Z,15.00
2018-11-03T12:55:47.906Z,15.00
2018-11-03T12:57:51.116Z,15.20
2018-11-03T12:59:54.715Z,15.30
2018-11-03T13:01:58.211Z,15.20
2018-11-03T13:04:01.756Z,15.40
2018-11-03T13:06:05.201Z,15.30
2018-11-03T13:08:08.632Z,15.30
2018-11-03T13:10:12.677Z,15.60
2018-11-03T13:12:16.223Z,15.60
2018-11-03T13:14:19.622Z,15.20
2018-11-03T13:16:23.176Z,15.30
2018-11-03T13:18:26.408Z,15.00
2018-11-03T13:20:29.624Z,14.70
2018-11-03T13:22:34.682Z,14.40
2018-11-03T13:24:38.148Z,14.30
2018-11-03T13:26:41.456Z,14.70
2018-11-03T13:28:44.646Z,14.70
2018-11-03T13:30:48.403Z,14.90
2018-11-03T13:32:51.691Z,14.70
2018-11-03T13:34:55.102Z,14.70
2018-11-03T13:36:58.490Z,14.90
2018-11-03T13:39:01.914Z,14.80
2018-11-03T13:41:05.254Z,14.20
2018-11-03T13:43:08.496Z,14.30
2018-11-03T13:45:11.929Z,14.60
2018-11-03T13:47:15.332Z,14.60
2018-11-03T13:49:18.673Z,14.40
2018-11-03T13:51:21.969Z,14.50
2018-11-03T13:53:25.253Z,14.30
2018-11-03T13:55:28.609Z,14.40
2018-11-03T13:57:31.853Z,14.50
2018-11-03T13:59:35.083Z,14.30
2018-11-03T14:01:38.668Z,14.10
2018-11-03T14:03:42.278Z,13.90
2018-11-03T14:05:45.480Z,13.70
2018-11-03T14:07:48.913Z,14.00
2018-11-03T14:09:52.152Z,13.90
2018-11-03T14:11:55.384Z,13.90
2018-11-03T14:13:58.633Z,13.90
2018-11-03T14:16:01.868Z,13.90
2018-11-03T14:18:05.313Z,13.80
2018-11-03T14:20:10.296Z,13.90
2018-11-03T14:22:13.892Z,14.10
2018-11-03T14:24:17.172Z,13.90
2018-11-03T14:26:21.019Z,13.80
2018-11-03T14:28:24.536Z,13.60
2018-11-03T14:30:27.792Z,13.40
2018-11-03T14:32:31.083Z,13.40
2018-11-03T14:34:34.298Z,13.30
2018-11-03T14:36:37.560Z,13.30
2018-11-03T14:38:41.158Z,13.50
2018-11-03T14:40:44.393Z,13.50
2018-11-03T14:42:47.618Z,13.70
2018-11-03T14:44:50.968Z,14.00
2018-11-03T14:46:54.333Z,13.90
2018-11-03T14:48:57.796Z,13.90
2018-11-03T14:51:01.073Z,14.00
2018-11-03T14:53:04.732Z,13.90
2018-11-03T14:55:09.250Z,13.70
2018-11-03T14:57:12.480Z,13.70
2018-11-03T14:59:15.729Z,13.80
2018-11-03T15:03:31.105Z,13.50
2018-11-03T15:05:34.649Z,13.40
2018-11-03T15:07:38.256Z,13.20
2018-11-03T15:09:41.860Z,13.10
2018-11-03T15:11:45.140Z,13.10
2018-11-03T15:13:48.487Z,13.10
2018-11-03T15:15:51.772Z,13.10
2018-11-03T15:17:55.628Z,13.00
2018-11-03T15:19:58.928Z,12.90
2018-11-03T15:22:02.236Z,12.90
2018-11-03T15:24:05.916Z,12.80
2018-11-03T15:26:09.208Z,12.80
2018-11-03T15:28:13.059Z,12.70
2018-11-03T15:30:16.321Z,12.50
2018-11-03T15:32:19.699Z,12.40
2018-11-03T15:34:23.176Z,11.90
2018-11-03T15:36:26.561Z,11.50
2018-11-03T15:38:29.769Z,11.20
2018-11-03T15:40:33.034Z,10.90
2018-11-03T15:42:36.428Z,10.60
2018-11-03T15:44:39.825Z,10.50
2018-11-03T15:46:43.418Z,10.30
2018-11-03T15:48:46.956Z,10.10
2018-11-03T15:50:50.877Z,10.00
2018-11-03T15:52:54.220Z,9.90
2018-11-03T15:54:57.504Z,9.70
2018-11-03T15:57:00.826Z,9.60
2018-11-03T15:59:04.516Z,9.50
2018-11-03T16:01:07.743Z,9.40
2018-11-03T16:03:11.089Z,9.30
2018-11-03T16:05:15.177Z,9.20
2018-11-03T16:07:18.656Z,9.10
2018-11-03T16:09:21.868Z,8.90
2018-11-03T16:11:25.994Z,8.90
2018-11-03T16:13:29.289Z,8.80
2018-11-03T16:15:32.550Z,8.60
2018-11-03T16:17:35.879Z,8.50
2018-11-03T16:19:39.204Z,8.50
2018-11-03T16:21:42.972Z,8.40
2018-11-03T16:23:46.229Z,8.30
2018-11-03T16:25:49.618Z,8.30
2018-11-03T16:27:53.031Z,8.30
2018-11-03T16:29:56.252Z,8.20
2018-11-03T16:31:59.643Z,8.10
2018-11-03T16:34:03.033Z,8.10
2018-11-03T16:36:06.332Z,8.00
2018-11-03T16:38:09.604Z,7.90
2018-11-03T16:40:14.187Z,7.90
2018-11-03T16:42:17.429Z,7.90
2018-11-03T16:44:20.658Z,8.00
2018-11-03T16:46:23.903Z,7.90
2018-11-03T16:48:27.159Z,7.70
2018-11-03T16:50:30.533Z,7.70
2018-11-03T16:52:33.832Z,7.70
2018-11-03T16:54:37.165Z,7.70
2018-11-03T16:56:40.407Z,7.50
2018-11-03T16:58:43.816Z,7.60
2018-11-03T17:00:47.243Z,7.70
2018-11-03T17:02:50.533Z,7.80
2018-11-03T17:04:53.807Z,7.80
2018-11-03T17:07:04.696Z,7.70
2018-11-03T17:09:09.057Z,7.70
2018-11-03T17:11:12.432Z,7.50
2018-11-03T17:13:15.604Z,7.40
2018-11-03T17:15:19.548Z,7.00
2018-11-03T17:17:22.768Z,7.10
2018-11-03T17:19:26.022Z,7.00
2018-11-03T17:21:29.259Z,6.90
2018-11-03T17:23:32.824Z,6.70
2018-11-03T17:25:36.223Z,6.70
2018-11-03T17:27:39.444Z,6.60
2018-11-03T17:29:42.779Z,6.60
2018-11-03T17:31:45.996Z,6.50
2018-11-03T17:33:49.390Z,6.40
2018-11-03T17:35:52.657Z,6.60
2018-11-03T17:37:55.954Z,6.70
2018-11-03T17:39:59.480Z,6.60
2018-11-03T17:42:02.680Z,6.40
2018-11-03T17:44:06.290Z,6.30
2018-11-03T17:46:09.665Z,6.30
2018-11-03T17:48:12.913Z,6.20
2018-11-03T17:50:16.140Z,6.30
2018-11-03T17:52:19.413Z,6.40
2018-11-03T17:54:22.999Z,6.30
2018-11-03T17:56:27.032Z,6.40
2018-11-03T17:58:30.371Z,6.40
2018-11-03T18:00:33.850Z,6.30
2018-11-03T18:02:37.178Z,6.20
2018-11-03T18:04:40.552Z,6.30
2018-11-03T18:06:43.930Z,6.40
2018-11-03T18:08:47.232Z,6.40
2018-11-03T18:10:50.448Z,6.40
2018-11-03T18:12:53.800Z,6.30
2018-11-03T18:14:57.036Z,6.20
2018-11-03T18:17:00.224Z,6.20
2018-11-03T18:19:03.847Z,6.10
2018-11-03T18:21:07.034Z,6.20
2018-11-03T18:23:10.276Z,6.30
2018-11-03T18:25:13.571Z,6.30
2018-11-03T18:27:16.819Z,6.10
2018-11-03T18:29:20.292Z,6.00
2018-11-03T18:31:23.583Z,5.80
2018-11-03T18:33:26.916Z,5.80
2018-11-03T18:35:30.216Z,5.80
2018-11-03T18:37:33.549Z,5.80
2018-11-03T18:39:36.787Z,5.90
2018-11-03T18:41:40.159Z,5.80
2018-11-03T18:43:43.428Z,5.80
2018-11-03T18:45:46.833Z,5.70
2018-11-03T18:47:50.054Z,5.60
2018-11-03T18:49:53.278Z,5.60
2018-11-03T18:51:56.551Z,5.50
2018-11-03T18:53:59.758Z,5.40
2018-11-03T18:56:03.321Z,5.40
2018-11-03T18:58:07.076Z,5.50
2018-11-03T19:00:11.076Z,5.50
2018-11-03T19:02:14.285Z,5.40
2018-11-03T19:04:17.899Z,5.60
2018-11-03T19:06:21.565Z,5.40
2018-11-03T19:08:24.790Z,5.40
2018-11-03T19:10:28.181Z,5.40
2018-11-03T19:12:31.461Z,5.50
2018-11-03T19:14:34.976Z,5.40
2018-11-03T19:16:38.214Z,5.30
2018-11-03T19:18:41.439Z,5.30
2018-11-03T19:20:44.889Z,5.30
2018-11-03T19:22:48.360Z,5.40
2018-11-03T19:24:51.615Z,5.40
2018-11-03T19:26:54.924Z,5.20
2018-11-03T19:28:58.168Z,5.10
2018-11-03T19:31:01.386Z,5.10
2018-11-03T19:33:04.982Z,5.00
2018-11-03T19:35:08.815Z,4.90
2018-11-03T19:37:12.089Z,4.80
2018-11-03T19:39:15.281Z,4.70
2018-11-03T19:41:18.702Z,5.00
2018-11-03T19:43:22.020Z,5.00
2018-11-03T19:45:25.339Z,5.10
2018-11-03T19:47:28.695Z,5.00
2018-11-03T19:49:31.964Z,5.00
2018-11-03T19:51:35.500Z,5.10
2018-11-03T19:53:39.236Z,5.10
2018-11-03T19:55:42.584Z,4.80
2018-11-03T19:57:45.972Z,4.80
2018-11-03T19:59:49.200Z,4.80
2018-11-03T20:01:52.527Z,4.80
2018-11-03T20:03:55.728Z,4.60
2018-11-03T20:05:59.454Z,4.60
2018-11-03T20:08:02.685Z,4.60
2018-11-03T20:10:06.233Z,4.40
2018-11-03T20:12:09.961Z,4.40
2018-11-03T20:14:13.180Z,4.30
2018-11-03T20:16:16.535Z,4.30
2018-11-03T20:18:19.760Z,4.30
2018-11-03T20:20:22.991Z,4.50
2018-11-03T20:22:26.180Z,4.50
2018-11-03T20:24:29.472Z,4.40
2018-11-03T20:26:32.780Z,4.30
2018-11-03T20:28:36.032Z,4.40
2018-11-03T20:30:39.450Z,4.40
2018-11-03T20:32:43.028Z,4.30
2018-11-03T20:34:46.600Z,4.30
2018-11-03T20:36:49.888Z,4.20
2018-11-03T20:38:53.124Z,4.10
2018-11-03T20:40:56.657Z,4.30
2018-11-03T20:42:59.882Z,4.50
2018-11-03T20:45:03.677Z,4.60
2018-11-03T20:47:07.296Z,4.40
2018-11-03T20:49:10.568Z,4.40
2018-11-03T20:51:13.841Z,4.50
2018-11-03T20:53:17.122Z,4.60
2018-11-03T20:55:20.413Z,4.50
2018-11-03T20:57:23.700Z,4.40
2018-11-03T20:59:27.210Z,4.50
2018-11-03T21:01:30.397Z,4.40
2018-11-03T21:03:33.633Z,4.20
2018-11-03T21:05:36.864Z,4.30
2018-11-03T21:07:40.909Z,4.20
2018-11-03T21:09:44.125Z,4.20
2018-11-03T21:11:47.556Z,4.30
2018-11-03T21:13:50.857Z,4.20
2018-11-03T21:15:54.118Z,4.00
2018-11-03T21:17:57.400Z,4.20
2018-11-03T21:20:00.653Z,4.10
2018-11-03T21:22:04.429Z,4.10
2018-11-03T21:24:07.889Z,4.00
2018-11-03T21:26:11.264Z,4.00
2018-11-03T21:28:14.488Z,4.00
2018-11-03T21:30:18.088Z,4.00
2018-11-03T21:32:21.635Z,4.10
2018-11-03T21:34:24.891Z,4.10
2018-11-03T21:36:28.097Z,4.20
2018-11-03T21:38:31.561Z,4.20
2018-11-03T21:40:35.049Z,4.30
2018-11-03T21:42:38.344Z,4.30
2018-11-03T21:44:41.864Z,4.20
2018-11-03T21:46:45.291Z,4.10
2018-11-03T21:48:48.660Z,4.10
2018-11-03T21:50:51.892Z,4.20
2018-11-03T21:52:55.128Z,4.20
2018-11-03T21:54:58.324Z,4.20
2018-11-03T21:57:01.783Z,4.20
2018-11-03T21:59:05.165Z,4.20
2018-11-03T22:01:08.697Z,4.20
2018-11-03T22:03:11.896Z,3.90
2018-11-03T22:05:15.151Z,4.00
2018-11-03T22:07:18.886Z,4.20
2018-11-03T22:09:22.226Z,4.20
2018-11-03T22:11:25.557Z,4.20
2018-11-03T22:13:28.814Z,4.20
2018-11-03T22:15:32.216Z,4.20
2018-11-03T22:17:35.424Z,4.10
2018-11-03T22:19:38.628Z,4.00
2018-11-03T22:21:42.396Z,4.10
2018-11-03T22:23:45.704Z,4.20
2018-11-03T22:25:48.928Z,4.00
2018-11-03T22:27:52.710Z,4.00
2018-11-03T22:29:56.115Z,3.80
2018-11-03T22:31:59.601Z,3.90
2018-11-03T22:34:03.148Z,3.90
2018-11-03T22:36:06.473Z,3.90
2018-11-03T22:38:09.915Z,4.00
2018-11-03T22:40:13.135Z,3.90
2018-11-03T22:42:16.539Z,3.90
2018-11-03T22:44:20.008Z,4.00
2018-11-03T22:46:23.341Z,4.00
2018-11-03T22:48:27.075Z,4.10
2018-11-03T22:50:30.516Z,4.20
2018-11-03T22:52:33.898Z,4.10
2018-11-03T22:54:38.545Z,4.10
2018-11-03T22:56:41.761Z,4.10
2018-11-03T22:58:45.045Z,4.10
2018-11-03T23:00:53.992Z,4.00
2018-11-03T23:02:57.237Z,4.00
2018-11-03T23:05:00.824Z,4.00
2018-11-03T23:07:04.820Z,4.00
2018-11-03T23:09:08.069Z,4.00
2018-11-03T23:11:11.840Z,4.00
2018-11-03T23:13:15.209Z,4.00
2018-11-03T23:15:18.859Z,3.90
2018-11-03T23:17:22.067Z,3.90
2018-11-03T23:19:25.298Z,3.90
2018-11-03T23:21:28.752Z,3.80
2018-11-03T23:23:32.016Z,3.70
2018-11-03T23:25:35.501Z,3.70
2018-11-03T23:27:38.868Z,3.60
2018-11-03T23:29:42.217Z,3.40
2018-11-03T23:31:45.888Z,3.50
2018-11-03T23:33:49.565Z,3.50
2018-11-03T23:35:53.007Z,3.30
2018-11-03T23:37:56.312Z,3.50
2018-11-03T23:39:59.719Z,3.50
2018-11-03T23:42:02.924Z,3.40
2018-11-03T23:44:06.661Z,3.40
2018-11-03T23:46:09.944Z,3.40
2018-11-03T23:48:13.701Z,3.40
2018-11-03T23:50:16.923Z,3.50
2018-11-03T23:52:25.709Z,3.50
2018-11-03T23:54:28.915Z,3.50
2018-11-03T23:56:32.151Z,3.40
2018-11-03T23:58:35.528Z,3.50
